sensor_id;sensor_type;location;lat;lon;timestamp;P1;durP1;ratioP1;P2;durP2;ratioP2
53269;SDS011;39159;45.634;9.420;2022-10-17T00:01:47;55.33;;;34.33;;
53269;SDS011;39159;45.634;9.420;2022-10-17T00:04:12;57.65;;;32.80;;
53269;SDS011;39159;45.634;9.420;2022-10-17T00:06:38;59.63;;;33.75;;
53269;SDS011;39159;45.634;9.420;2022-10-17T00:09:03;61.03;;;35.08;;
53269;SDS011;39159;45.634;9.420;2022-10-17T00:11:29;58.22;;;34.33;;
53269;SDS011;39159;45.634;9.420;2022-10-17T00:13:54;61.90;;;35.83;;
53269;SDS011;39159;45.634;9.420;2022-10-17T00:16:24;57.15;;;34.15;;
53269;SDS011;39159;45.634;9.420;2022-10-17T00:19:00;61.47;;;34.20;;
53269;SDS011;39159;45.634;9.420;2022-10-17T00:21:25;62.15;;;34.17;;
53269;SDS011;39159;45.634;9.420;2022-10-17T00:23:51;58.58;;;33.75;;
53269;SDS011;39159;45.634;9.420;2022-10-17T00:26:17;57.58;;;32.03;;
53269;SDS011;39159;45.634;9.420;2022-10-17T00:28:45;66.82;;;35.38;;
53269;SDS011;39159;45.634;9.420;2022-10-17T00:31:15;56.53;;;34.60;;
53269;SDS011;39159;45.634;9.420;2022-10-17T00:33:42;66.70;;;37.25;;
53269;SDS011;39159;45.634;9.420;2022-10-17T00:36:10;69.40;;;38.85;;
53269;SDS011;39159;45.634;9.420;2022-10-17T00:38:41;67.72;;;37.25;;
53269;SDS011;39159;45.634;9.420;2022-10-17T00:41:08;65.85;;;38.47;;
53269;SDS011;39159;45.634;9.420;2022-10-17T00:43:48;64.15;;;38.65;;
53269;SDS011;39159;45.634;9.420;2022-10-17T00:46:13;73.00;;;39.70;;
53269;SDS011;39159;45.634;9.420;2022-10-17T00:48:39;88.18;;;40.53;;
53269;SDS011;39159;45.634;9.420;2022-10-17T00:51:05;70.53;;;38.90;;
53269;SDS011;39159;45.634;9.420;2022-10-17T00:53:30;69.38;;;39.47;;
53269;SDS011;39159;45.634;9.420;2022-10-17T00:55:56;66.97;;;39.00;;
53269;SDS011;39159;45.634;9.420;2022-10-17T00:58:22;68.55;;;39.75;;
53269;SDS011;39159;45.634;9.420;2022-10-17T01:00:47;72.80;;;40.58;;
53269;SDS011;39159;45.634;9.420;2022-10-17T01:03:13;70.93;;;39.20;;
53269;SDS011;39159;45.634;9.420;2022-10-17T01:05:39;67.93;;;37.80;;
53269;SDS011;39159;45.634;9.420;2022-10-17T01:08:05;75.30;;;40.40;;
53269;SDS011;39159;45.634;9.420;2022-10-17T01:10:34;76.38;;;39.60;;
53269;SDS011;39159;45.634;9.420;2022-10-17T01:13:10;72.45;;;41.20;;
53269;SDS011;39159;45.634;9.420;2022-10-17T01:15:55;76.18;;;41.53;;
53269;SDS011;39159;45.634;9.420;2022-10-17T01:18:31;69.22;;;40.40;;
53269;SDS011;39159;45.634;9.420;2022-10-17T01:32:44;73.45;;;41.20;;
53269;SDS011;39159;45.634;9.420;2022-10-17T01:35:19;82.38;;;44.15;;
53269;SDS011;39159;45.634;9.420;2022-10-17T01:37:55;82.45;;;42.97;;
53269;SDS011;39159;45.634;9.420;2022-10-17T01:40:33;80.05;;;43.78;;
53269;SDS011;39159;45.634;9.420;2022-10-17T01:43:11;82.47;;;44.22;;
53269;SDS011;39159;45.634;9.420;2022-10-17T01:45:48;80.75;;;43.85;;
53269;SDS011;39159;45.634;9.420;2022-10-17T01:48:22;83.32;;;43.72;;
53269;SDS011;39159;45.634;9.420;2022-10-17T01:50:51;86.33;;;46.27;;
53269;SDS011;39159;45.634;9.420;2022-10-17T01:53:27;89.72;;;46.53;;
53269;SDS011;39159;45.634;9.420;2022-10-17T01:55:58;82.13;;;43.03;;
53269;SDS011;39159;45.634;9.420;2022-10-17T01:58:30;84.68;;;44.33;;
53269;SDS011;39159;45.634;9.420;2022-10-17T02:01:00;83.10;;;43.42;;
53269;SDS011;39159;45.634;9.420;2022-10-17T02:03:31;85.40;;;43.08;;
53269;SDS011;39159;45.634;9.420;2022-10-17T02:05:58;82.85;;;40.75;;
53269;SDS011;39159;45.634;9.420;2022-10-17T02:08:28;88.45;;;42.85;;
53269;SDS011;39159;45.634;9.420;2022-10-17T02:11:05;84.53;;;41.47;;
53269;SDS011;39159;45.634;9.420;2022-10-17T02:13:57;78.20;;;40.92;;
53269;SDS011;39159;45.634;9.420;2022-10-17T02:25:26;61.05;;;35.45;;
53269;SDS011;39159;45.634;9.420;2022-10-17T02:30:35;55.42;;;32.85;;
53269;SDS011;39159;45.634;9.420;2022-10-17T02:35:53;60.85;;;33.65;;
53269;SDS011;39159;45.634;9.420;2022-10-17T02:38:23;61.03;;;34.03;;
53269;SDS011;39159;45.634;9.420;2022-10-17T02:40:51;57.15;;;32.25;;
53269;SDS011;39159;45.634;9.420;2022-10-17T02:43:17;57.95;;;32.25;;
53269;SDS011;39159;45.634;9.420;2022-10-17T02:45:44;61.47;;;33.08;;
53269;SDS011;39159;45.634;9.420;2022-10-17T02:48:14;59.90;;;32.97;;
53269;SDS011;39159;45.634;9.420;2022-10-17T02:50:45;57.28;;;33.63;;
53269;SDS011;39159;45.634;9.420;2022-10-17T02:53:25;61.53;;;33.22;;
53269;SDS011;39159;45.634;9.420;2022-10-17T02:55:57;56.53;;;32.58;;
53269;SDS011;39159;45.634;9.420;2022-10-17T03:00:58;57.15;;;32.45;;
53269;SDS011;39159;45.634;9.420;2022-10-17T03:03:26;59.10;;;32.72;;
53269;SDS011;39159;45.634;9.420;2022-10-17T03:05:53;64.13;;;33.75;;
53269;SDS011;39159;45.634;9.420;2022-10-17T03:08:19;56.30;;;33.50;;
53269;SDS011;39159;45.634;9.420;2022-10-17T03:10:45;62.67;;;34.80;;
53269;SDS011;39159;45.634;9.420;2022-10-17T03:13:10;61.50;;;33.92;;
53269;SDS011;39159;45.634;9.420;2022-10-17T03:15:36;56.38;;;33.38;;
53269;SDS011;39159;45.634;9.420;2022-10-17T03:18:01;60.80;;;34.15;;
53269;SDS011;39159;45.634;9.420;2022-10-17T03:20:27;60.42;;;32.97;;
53269;SDS011;39159;45.634;9.420;2022-10-17T03:22:53;57.20;;;33.40;;
53269;SDS011;39159;45.634;9.420;2022-10-17T03:25:18;59.05;;;33.70;;
53269;SDS011;39159;45.634;9.420;2022-10-17T03:27:44;59.78;;;33.60;;
53269;SDS011;39159;45.634;9.420;2022-10-17T03:30:09;56.70;;;34.58;;
53269;SDS011;39159;45.634;9.420;2022-10-17T03:32:35;62.75;;;33.25;;
53269;SDS011;39159;45.634;9.420;2022-10-17T03:35:01;56.15;;;33.08;;
53269;SDS011;39159;45.634;9.420;2022-10-17T03:37:26;60.70;;;32.15;;
53269;SDS011;39159;45.634;9.420;2022-10-17T03:39:52;52.20;;;30.92;;
53269;SDS011;39159;45.634;9.420;2022-10-17T03:42:17;51.80;;;30.80;;
53269;SDS011;39159;45.634;9.420;2022-10-17T03:44:43;53.13;;;31.67;;
53269;SDS011;39159;45.634;9.420;2022-10-17T03:47:08;51.00;;;30.33;;
53269;SDS011;39159;45.634;9.420;2022-10-17T03:49:34;45.42;;;28.73;;
53269;SDS011;39159;45.634;9.420;2022-10-17T03:51:59;50.25;;;28.90;;
53269;SDS011;39159;45.634;9.420;2022-10-17T03:54:25;49.25;;;28.35;;
53269;SDS011;39159;45.634;9.420;2022-10-17T03:56:50;46.65;;;28.95;;
53269;SDS011;39159;45.634;9.420;2022-10-17T03:59:16;48.20;;;27.63;;
53269;SDS011;39159;45.634;9.420;2022-10-17T04:01:41;43.42;;;28.10;;
53269;SDS011;39159;45.634;9.420;2022-10-17T04:04:07;46.90;;;26.90;;
53269;SDS011;39159;45.634;9.420;2022-10-17T04:06:34;45.67;;;27.33;;
53269;SDS011;39159;45.634;9.420;2022-10-17T04:08:59;43.60;;;27.13;;
53269;SDS011;39159;45.634;9.420;2022-10-17T04:11:25;43.10;;;27.20;;
53269;SDS011;39159;45.634;9.420;2022-10-17T04:13:54;44.42;;;27.13;;
53269;SDS011;39159;45.634;9.420;2022-10-17T04:16:21;46.28;;;27.40;;
53269;SDS011;39159;45.634;9.420;2022-10-17T04:18:50;50.42;;;29.55;;
53269;SDS011;39159;45.634;9.420;2022-10-17T04:21:18;40.20;;;25.13;;
53269;SDS011;39159;45.634;9.420;2022-10-17T04:23:43;44.15;;;26.42;;
53269;SDS011;39159;45.634;9.420;2022-10-17T04:26:09;47.90;;;27.90;;
53269;SDS011;39159;45.634;9.420;2022-10-17T04:28:35;49.72;;;27.33;;
53269;SDS011;39159;45.634;9.420;2022-10-17T04:31:05;45.60;;;26.23;;
53269;SDS011;39159;45.634;9.420;2022-10-17T04:33:33;50.83;;;26.90;;
53269;SDS011;39159;45.634;9.420;2022-10-17T04:36:00;43.13;;;26.70;;
53269;SDS011;39159;45.634;9.420;2022-10-17T04:38:27;47.58;;;27.60;;
53269;SDS011;39159;45.634;9.420;2022-10-17T04:40:53;46.72;;;26.80;;
53269;SDS011;39159;45.634;9.420;2022-10-17T04:43:21;44.17;;;25.25;;
53269;SDS011;39159;45.634;9.420;2022-10-17T04:45:46;39.92;;;25.00;;
53269;SDS011;39159;45.634;9.420;2022-10-17T04:48:11;42.72;;;25.88;;
53269;SDS011;39159;45.634;9.420;2022-10-17T04:50:37;42.33;;;25.67;;
53269;SDS011;39159;45.634;9.420;2022-10-17T04:53:02;51.67;;;25.33;;
53269;SDS011;39159;45.634;9.420;2022-10-17T04:55:28;50.83;;;26.02;;
53269;SDS011;39159;45.634;9.420;2022-10-17T04:57:53;40.60;;;24.17;;
53269;SDS011;39159;45.634;9.420;2022-10-17T05:00:18;39.95;;;25.13;;
53269;SDS011;39159;45.634;9.420;2022-10-17T05:02:44;40.97;;;25.70;;
53269;SDS011;39159;45.634;9.420;2022-10-17T05:05:09;43.42;;;24.65;;
53269;SDS011;39159;45.634;9.420;2022-10-17T05:07:38;40.85;;;24.85;;
53269;SDS011;39159;45.634;9.420;2022-10-17T05:10:04;40.95;;;26.27;;
53269;SDS011;39159;45.634;9.420;2022-10-17T05:12:30;38.47;;;25.00;;
53269;SDS011;39159;45.634;9.420;2022-10-17T05:14:55;44.80;;;27.17;;
53269;SDS011;39159;45.634;9.420;2022-10-17T05:17:21;44.60;;;27.20;;
53269;SDS011;39159;45.634;9.420;2022-10-17T05:19:46;44.05;;;26.52;;
53269;SDS011;39159;45.634;9.420;2022-10-17T05:22:12;39.88;;;25.65;;
53269;SDS011;39159;45.634;9.420;2022-10-17T05:24:37;42.78;;;27.58;;
53269;SDS011;39159;45.634;9.420;2022-10-17T05:27:03;39.88;;;25.63;;
53269;SDS011;39159;45.634;9.420;2022-10-17T05:29:28;50.97;;;28.70;;
53269;SDS011;39159;45.634;9.420;2022-10-17T05:31:53;39.58;;;24.83;;
53269;SDS011;39159;45.634;9.420;2022-10-17T05:34:19;39.75;;;24.45;;
53269;SDS011;39159;45.634;9.420;2022-10-17T05:36:44;40.10;;;25.30;;
53269;SDS011;39159;45.634;9.420;2022-10-17T05:39:11;37.78;;;24.48;;
53269;SDS011;39159;45.634;9.420;2022-10-17T05:41:38;39.75;;;26.05;;
53269;SDS011;39159;45.634;9.420;2022-10-17T05:44:04;43.95;;;26.05;;
53269;SDS011;39159;45.634;9.420;2022-10-17T05:46:29;42.03;;;25.13;;
53269;SDS011;39159;45.634;9.420;2022-10-17T05:48:55;75.80;;;29.02;;
53269;SDS011;39159;45.634;9.420;2022-10-17T05:51:20;50.80;;;25.75;;
53269;SDS011;39159;45.634;9.420;2022-10-17T05:53:46;52.80;;;25.77;;
53269;SDS011;39159;45.634;9.420;2022-10-17T05:56:11;41.22;;;23.65;;
53269;SDS011;39159;45.634;9.420;2022-10-17T05:58:39;37.78;;;21.17;;
53269;SDS011;39159;45.634;9.420;2022-10-17T06:01:06;34.85;;;22.65;;
53269;SDS011;39159;45.634;9.420;2022-10-17T06:03:32;33.13;;;22.17;;
53269;SDS011;39159;45.634;9.420;2022-10-17T06:06:02;49.70;;;24.65;;
53269;SDS011;39159;45.634;9.420;2022-10-17T06:08:32;44.05;;;24.10;;
53269;SDS011;39159;45.634;9.420;2022-10-17T06:10:58;45.63;;;23.70;;
53269;SDS011;39159;45.634;9.420;2022-10-17T06:13:24;38.72;;;22.48;;
53269;SDS011;39159;45.634;9.420;2022-10-17T06:15:50;71.10;;;25.73;;
53269;SDS011;39159;45.634;9.420;2022-10-17T06:18:15;88.00;;;26.98;;
53269;SDS011;39159;45.634;9.420;2022-10-17T06:20:40;120.20;;;29.00;;
53269;SDS011;39159;45.634;9.420;2022-10-17T06:23:06;89.68;;;26.92;;
53269;SDS011;39159;45.634;9.420;2022-10-17T06:25:32;62.38;;;25.17;;
53269;SDS011;39159;45.634;9.420;2022-10-17T06:27:58;44.78;;;21.77;;
53269;SDS011;39159;45.634;9.420;2022-10-17T06:30:23;63.10;;;24.58;;
53269;SDS011;39159;45.634;9.420;2022-10-17T06:32:50;63.45;;;24.98;;
53269;SDS011;39159;45.634;9.420;2022-10-17T06:35:16;47.83;;;24.75;;
53269;SDS011;39159;45.634;9.420;2022-10-17T06:37:42;36.78;;;22.15;;
53269;SDS011;39159;45.634;9.420;2022-10-17T06:40:08;37.95;;;21.92;;
53269;SDS011;39159;45.634;9.420;2022-10-17T06:42:36;34.05;;;21.02;;
53269;SDS011;39159;45.634;9.420;2022-10-17T06:45:02;37.80;;;24.13;;
53269;SDS011;39159;45.634;9.420;2022-10-17T06:47:28;32.97;;;21.23;;
53269;SDS011;39159;45.634;9.420;2022-10-17T06:49:53;44.42;;;23.52;;
53269;SDS011;39159;45.634;9.420;2022-10-17T06:52:19;47.30;;;24.58;;
53269;SDS011;39159;45.634;9.420;2022-10-17T06:54:44;60.05;;;26.05;;
53269;SDS011;39159;45.634;9.420;2022-10-17T06:57:10;45.75;;;23.95;;
53269;SDS011;39159;45.634;9.420;2022-10-17T06:59:35;84.90;;;27.60;;
53269;SDS011;39159;45.634;9.420;2022-10-17T07:02:01;84.10;;;26.95;;
53269;SDS011;39159;45.634;9.420;2022-10-17T07:04:26;65.32;;;25.77;;
53269;SDS011;39159;45.634;9.420;2022-10-17T07:06:53;58.08;;;27.40;;
53269;SDS011;39159;45.634;9.420;2022-10-17T07:09:18;50.97;;;26.75;;
53269;SDS011;39159;45.634;9.420;2022-10-17T07:11:44;46.90;;;27.38;;
53269;SDS011;39159;45.634;9.420;2022-10-17T07:14:09;55.10;;;28.60;;
53269;SDS011;39159;45.634;9.420;2022-10-17T07:16:35;57.80;;;28.65;;
53269;SDS011;39159;45.634;9.420;2022-10-17T07:19:01;45.58;;;28.52;;
53269;SDS011;39159;45.634;9.420;2022-10-17T07:21:26;50.92;;;27.40;;
53269;SDS011;39159;45.634;9.420;2022-10-17T07:23:51;40.63;;;26.60;;
53269;SDS011;39159;45.634;9.420;2022-10-17T07:26:17;39.60;;;25.35;;
53269;SDS011;39159;45.634;9.420;2022-10-17T07:28:44;42.28;;;26.33;;
53269;SDS011;39159;45.634;9.420;2022-10-17T07:31:13;44.40;;;25.95;;
53269;SDS011;39159;45.634;9.420;2022-10-17T07:33:40;37.03;;;23.58;;
53269;SDS011;39159;45.634;9.420;2022-10-17T07:36:06;33.95;;;21.95;;
53269;SDS011;39159;45.634;9.420;2022-10-17T07:38:32;40.42;;;24.30;;
53269;SDS011;39159;45.634;9.420;2022-10-17T07:41:01;34.45;;;22.10;;
53269;SDS011;39159;45.634;9.420;2022-10-17T07:43:28;30.23;;;20.38;;
53269;SDS011;39159;45.634;9.420;2022-10-17T07:45:54;30.63;;;21.05;;
53269;SDS011;39159;45.634;9.420;2022-10-17T07:48:20;33.72;;;20.15;;
53269;SDS011;39159;45.634;9.420;2022-10-17T07:50:47;29.80;;;19.75;;
53269;SDS011;39159;45.634;9.420;2022-10-17T07:53:12;32.72;;;20.10;;
53269;SDS011;39159;45.634;9.420;2022-10-17T07:55:38;29.23;;;17.85;;
53269;SDS011;39159;45.634;9.420;2022-10-17T07:58:06;29.00;;;19.00;;
53269;SDS011;39159;45.634;9.420;2022-10-17T08:00:33;29.55;;;19.27;;
53269;SDS011;39159;45.634;9.420;2022-10-17T08:02:58;27.48;;;17.80;;
53269;SDS011;39159;45.634;9.420;2022-10-17T08:05:24;27.17;;;18.40;;
53269;SDS011;39159;45.634;9.420;2022-10-17T08:07:49;24.08;;;17.27;;
53269;SDS011;39159;45.634;9.420;2022-10-17T08:10:15;25.30;;;16.73;;
53269;SDS011;39159;45.634;9.420;2022-10-17T08:12:41;22.98;;;17.02;;
53269;SDS011;39159;45.634;9.420;2022-10-17T08:15:07;21.80;;;15.82;;
53269;SDS011;39159;45.634;9.420;2022-10-17T08:17:34;27.58;;;18.00;;
53269;SDS011;39159;45.634;9.420;2022-10-17T08:20:00;26.60;;;18.45;;
53269;SDS011;39159;45.634;9.420;2022-10-17T08:22:26;26.45;;;17.58;;
53269;SDS011;39159;45.634;9.420;2022-10-17T08:24:51;31.08;;;19.35;;
53269;SDS011;39159;45.634;9.420;2022-10-17T08:27:17;32.97;;;20.35;;
53269;SDS011;39159;45.634;9.420;2022-10-17T08:29:48;26.85;;;18.70;;
53269;SDS011;39159;45.634;9.420;2022-10-17T08:32:17;35.33;;;20.23;;
53269;SDS011;39159;45.634;9.420;2022-10-17T08:34:44;33.63;;;21.10;;
53269;SDS011;39159;45.634;9.420;2022-10-17T08:37:09;32.40;;;20.90;;
53269;SDS011;39159;45.634;9.420;2022-10-17T08:39:37;35.72;;;24.30;;
53269;SDS011;39159;45.634;9.420;2022-10-17T08:44:49;36.13;;;23.40;;
53269;SDS011;39159;45.634;9.420;2022-10-17T08:50:09;33.17;;;20.65;;
53269;SDS011;39159;45.634;9.420;2022-10-17T08:52:44;36.17;;;22.77;;
53269;SDS011;39159;45.634;9.420;2022-10-17T08:55:16;33.67;;;20.85;;
53269;SDS011;39159;45.634;9.420;2022-10-17T08:57:47;36.47;;;23.27;;
53269;SDS011;39159;45.634;9.420;2022-10-17T09:00:19;38.85;;;24.58;;
53269;SDS011;39159;45.634;9.420;2022-10-17T09:05:51;33.92;;;22.75;;
53269;SDS011;39159;45.634;9.420;2022-10-17T09:08:22;32.95;;;20.63;;
53269;SDS011;39159;45.634;9.420;2022-10-17T09:13:39;37.97;;;23.88;;
53269;SDS011;39159;45.634;9.420;2022-10-17T09:19:25;42.97;;;27.52;;
53269;SDS011;39159;45.634;9.420;2022-10-17T09:22:05;32.45;;;22.42;;
53269;SDS011;39159;45.634;9.420;2022-10-17T09:27:16;33.47;;;22.55;;
53269;SDS011;39159;45.634;9.420;2022-10-17T09:29:48;35.67;;;24.13;;
53269;SDS011;39159;45.634;9.420;2022-10-17T09:32:18;40.17;;;25.90;;
53269;SDS011;39159;45.634;9.420;2022-10-17T09:34:48;35.42;;;23.77;;
53269;SDS011;39159;45.634;9.420;2022-10-17T09:37:14;37.03;;;24.00;;
53269;SDS011;39159;45.634;9.420;2022-10-17T09:39:41;34.60;;;22.02;;
53269;SDS011;39159;45.634;9.420;2022-10-17T09:42:14;36.22;;;22.38;;
53269;SDS011;39159;45.634;9.420;2022-10-17T09:45:02;32.53;;;22.45;;
53269;SDS011;39159;45.634;9.420;2022-10-17T09:47:41;32.38;;;21.48;;
53269;SDS011;39159;45.634;9.420;2022-10-17T09:50:16;33.22;;;22.13;;
53269;SDS011;39159;45.634;9.420;2022-10-17T09:52:47;33.03;;;20.60;;
53269;SDS011;39159;45.634;9.420;2022-10-17T09:55:19;38.00;;;22.60;;
53269;SDS011;39159;45.634;9.420;2022-10-17T10:00:20;34.78;;;24.52;;
53269;SDS011;39159;45.634;9.420;2022-10-17T10:02:47;38.65;;;23.83;;
53269;SDS011;39159;45.634;9.420;2022-10-17T10:05:14;34.15;;;23.42;;
53269;SDS011;39159;45.634;9.420;2022-10-17T10:07:41;32.35;;;21.88;;
53269;SDS011;39159;45.634;9.420;2022-10-17T10:10:22;33.75;;;23.83;;
53269;SDS011;39159;45.634;9.420;2022-10-17T10:15:37;37.97;;;24.80;;
53269;SDS011;39159;45.634;9.420;2022-10-17T10:20:49;40.15;;;26.33;;
53269;SDS011;39159;45.634;9.420;2022-10-17T10:24:02;38.88;;;25.38;;
53269;SDS011;39159;45.634;9.420;2022-10-17T10:26:23;41.63;;;28.15;;
53269;SDS011;39159;45.634;9.420;2022-10-17T10:29:00;34.67;;;23.73;;
53269;SDS011;39159;45.634;9.420;2022-10-17T10:31:30;47.63;;;29.02;;
53269;SDS011;39159;45.634;9.420;2022-10-17T10:34:00;46.35;;;28.70;;
53269;SDS011;39159;45.634;9.420;2022-10-17T10:36:43;37.92;;;25.20;;
53269;SDS011;39159;45.634;9.420;2022-10-17T10:39:22;39.92;;;26.60;;
53269;SDS011;39159;45.634;9.420;2022-10-17T10:45:14;51.13;;;30.48;;
53269;SDS011;39159;45.634;9.420;2022-10-17T10:47:48;44.00;;;28.98;;
53269;SDS011;39159;45.634;9.420;2022-10-17T10:53:22;41.22;;;27.63;;
53269;SDS011;39159;45.634;9.420;2022-10-17T10:55:57;49.47;;;31.35;;
53269;SDS011;39159;45.634;9.420;2022-10-17T11:01:03;50.70;;;30.88;;
53269;SDS011;39159;45.634;9.420;2022-10-17T11:03:40;48.58;;;28.98;;
53269;SDS011;39159;45.634;9.420;2022-10-17T11:06:17;51.55;;;30.83;;
53269;SDS011;39159;45.634;9.420;2022-10-17T11:08:53;51.80;;;32.80;;
53269;SDS011;39159;45.634;9.420;2022-10-17T11:11:41;52.80;;;34.80;;
53269;SDS011;39159;45.634;9.420;2022-10-17T11:14:17;47.33;;;30.00;;
53269;SDS011;39159;45.634;9.420;2022-10-17T11:19:30;57.00;;;33.37;;
53269;SDS011;39159;45.634;9.420;2022-10-17T11:24:39;57.63;;;35.88;;
53269;SDS011;39159;45.634;9.420;2022-10-17T11:27:07;57.85;;;36.80;;
53269;SDS011;39159;45.634;9.420;2022-10-17T11:29:34;55.05;;;36.03;;
53269;SDS011;39159;45.634;9.420;2022-10-17T11:32:07;62.95;;;38.22;;
53269;SDS011;39159;45.634;9.420;2022-10-17T11:34:45;59.25;;;37.97;;
53269;SDS011;39159;45.634;9.420;2022-10-17T11:37:16;55.40;;;35.72;;
53269;SDS011;39159;45.634;9.420;2022-10-17T11:42:22;54.20;;;34.08;;
53269;SDS011;39159;45.634;9.420;2022-10-17T11:44:54;67.22;;;41.63;;
53269;SDS011;39159;45.634;9.420;2022-10-17T11:50:22;64.13;;;38.10;;
53269;SDS011;39159;45.634;9.420;2022-10-17T11:52:55;52.95;;;33.38;;
53269;SDS011;39159;45.634;9.420;2022-10-17T11:55:29;63.80;;;41.03;;
53269;SDS011;39159;45.634;9.420;2022-10-17T12:01:12;86.30;;;38.22;;
53269;SDS011;39159;45.634;9.420;2022-10-17T12:09:49;72.95;;;42.13;;
53269;SDS011;39159;45.634;9.420;2022-10-17T12:12:26;61.25;;;40.10;;
53269;SDS011;39159;45.634;9.420;2022-10-17T12:14:53;64.68;;;40.33;;
53269;SDS011;39159;45.634;9.420;2022-10-17T12:17:53;75.07;;;39.20;;
53269;SDS011;39159;45.634;9.420;2022-10-17T12:20:27;65.88;;;41.40;;
53269;SDS011;39159;45.634;9.420;2022-10-17T12:23:03;58.47;;;37.67;;
53269;SDS011;39159;45.634;9.420;2022-10-17T12:25:35;60.50;;;36.33;;
53269;SDS011;39159;45.634;9.420;2022-10-17T12:31:08;61.40;;;38.25;;
53269;SDS011;39159;45.634;9.420;2022-10-17T12:33:50;68.45;;;41.60;;
53269;SDS011;39159;45.634;9.420;2022-10-17T12:38:41;48.95;;;32.50;;
53269;SDS011;39159;45.634;9.420;2022-10-17T12:41:08;48.40;;;31.00;;
53269;SDS011;39159;45.634;9.420;2022-10-17T12:43:48;59.03;;;38.17;;
53269;SDS011;39159;45.634;9.420;2022-10-17T12:52:24;64.88;;;41.00;;
53269;SDS011;39159;45.634;9.420;2022-10-17T12:55:00;53.97;;;36.00;;
53269;SDS011;39159;45.634;9.420;2022-10-17T13:02:36;61.10;;;37.65;;
53269;SDS011;39159;45.634;9.420;2022-10-17T13:05:04;50.58;;;34.13;;
53269;SDS011;39159;45.634;9.420;2022-10-17T13:07:32;61.35;;;37.22;;
53269;SDS011;39159;45.634;9.420;2022-10-17T13:10:00;63.25;;;37.35;;
53269;SDS011;39159;45.634;9.420;2022-10-17T13:12:29;62.13;;;37.38;;
53269;SDS011;39159;45.634;9.420;2022-10-17T13:14:57;55.65;;;32.80;;
53269;SDS011;39159;45.634;9.420;2022-10-17T13:17:25;56.60;;;37.95;;
53269;SDS011;39159;45.634;9.420;2022-10-17T13:19:54;60.92;;;39.83;;
53269;SDS011;39159;45.634;9.420;2022-10-17T13:22:22;60.60;;;39.97;;
53269;SDS011;39159;45.634;9.420;2022-10-17T13:24:49;68.85;;;40.30;;
53269;SDS011;39159;45.634;9.420;2022-10-17T13:27:28;52.50;;;32.47;;
53269;SDS011;39159;45.634;9.420;2022-10-17T13:29:58;49.60;;;31.57;;
53269;SDS011;39159;45.634;9.420;2022-10-17T13:32:27;45.75;;;30.00;;
53269;SDS011;39159;45.634;9.420;2022-10-17T13:35:42;55.28;;;35.42;;
53269;SDS011;39159;45.634;9.420;2022-10-17T13:37:53;49.53;;;30.42;;
53269;SDS011;39159;45.634;9.420;2022-10-17T13:40:21;60.75;;;36.67;;
53269;SDS011;39159;45.634;9.420;2022-10-17T13:42:49;54.22;;;35.42;;
53269;SDS011;39159;45.634;9.420;2022-10-17T13:45:32;42.92;;;27.73;;
53269;SDS011;39159;45.634;9.420;2022-10-17T13:48:05;52.47;;;33.83;;
53269;SDS011;39159;45.634;9.420;2022-10-17T13:50:40;53.95;;;35.17;;
53269;SDS011;39159;45.634;9.420;2022-10-17T13:53:07;47.63;;;31.10;;
53269;SDS011;39159;45.634;9.420;2022-10-17T13:55:38;61.42;;;39.10;;
53269;SDS011;39159;45.634;9.420;2022-10-17T13:58:14;49.47;;;33.47;;
53269;SDS011;39159;45.634;9.420;2022-10-17T14:00:41;49.92;;;32.70;;
53269;SDS011;39159;45.634;9.420;2022-10-17T14:03:07;59.80;;;34.40;;
53269;SDS011;39159;45.634;9.420;2022-10-17T14:05:33;56.70;;;35.72;;
53269;SDS011;39159;45.634;9.420;2022-10-17T14:08:02;50.55;;;32.40;;
53269;SDS011;39159;45.634;9.420;2022-10-17T14:12:58;42.55;;;27.35;;
53269;SDS011;39159;45.634;9.420;2022-10-17T14:15:26;52.50;;;31.05;;
53269;SDS011;39159;45.634;9.420;2022-10-17T14:17:58;47.25;;;29.95;;
53269;SDS011;39159;45.634;9.420;2022-10-17T14:20:26;44.70;;;29.38;;
53269;SDS011;39159;45.634;9.420;2022-10-17T14:22:53;50.63;;;29.83;;
53269;SDS011;39159;45.634;9.420;2022-10-17T14:25:27;55.75;;;29.08;;
53269;SDS011;39159;45.634;9.420;2022-10-17T14:27:54;43.85;;;29.52;;
53269;SDS011;39159;45.634;9.420;2022-10-17T14:30:31;44.42;;;28.85;;
53269;SDS011;39159;45.634;9.420;2022-10-17T14:33:02;44.28;;;30.10;;
53269;SDS011;39159;45.634;9.420;2022-10-17T14:35:31;52.72;;;31.02;;
53269;SDS011;39159;45.634;9.420;2022-10-17T14:37:58;53.28;;;32.95;;
53269;SDS011;39159;45.634;9.420;2022-10-17T14:40:30;75.57;;;29.83;;
53269;SDS011;39159;45.634;9.420;2022-10-17T14:42:58;52.55;;;30.30;;
53269;SDS011;39159;45.634;9.420;2022-10-17T14:45:29;56.38;;;35.30;;
53269;SDS011;39159;45.634;9.420;2022-10-17T14:48:30;56.67;;;33.35;;
53269;SDS011;39159;45.634;9.420;2022-10-17T14:53:35;50.88;;;33.15;;
53269;SDS011;39159;45.634;9.420;2022-10-17T14:56:02;61.35;;;34.80;;
53269;SDS011;39159;45.634;9.420;2022-10-17T14:58:34;51.65;;;31.20;;
53269;SDS011;39159;45.634;9.420;2022-10-17T15:01:00;44.92;;;29.17;;
53269;SDS011;39159;45.634;9.420;2022-10-17T15:03:26;49.67;;;29.42;;
53269;SDS011;39159;45.634;9.420;2022-10-17T15:05:52;48.08;;;30.15;;
53269;SDS011;39159;45.634;9.420;2022-10-17T15:08:22;38.05;;;24.23;;
53269;SDS011;39159;45.634;9.420;2022-10-17T15:10:48;41.90;;;25.42;;
53269;SDS011;39159;45.634;9.420;2022-10-17T15:13:15;39.03;;;26.88;;
53269;SDS011;39159;45.634;9.420;2022-10-17T15:15:42;33.90;;;22.98;;
53269;SDS011;39159;45.634;9.420;2022-10-17T15:18:09;39.22;;;24.67;;
53269;SDS011;39159;45.634;9.420;2022-10-17T15:20:36;35.00;;;22.05;;
53269;SDS011;39159;45.634;9.420;2022-10-17T15:23:02;37.50;;;24.73;;
53269;SDS011;39159;45.634;9.420;2022-10-17T15:25:28;40.65;;;26.33;;
53269;SDS011;39159;45.634;9.420;2022-10-17T15:27:55;42.58;;;27.42;;
53269;SDS011;39159;45.634;9.420;2022-10-17T15:30:26;41.80;;;25.15;;
53269;SDS011;39159;45.634;9.420;2022-10-17T15:32:53;38.70;;;25.08;;
53269;SDS011;39159;45.634;9.420;2022-10-17T15:35:19;49.22;;;29.45;;
53269;SDS011;39159;45.634;9.420;2022-10-17T15:37:45;42.83;;;26.52;;
53269;SDS011;39159;45.634;9.420;2022-10-17T15:40:15;45.97;;;28.50;;
53269;SDS011;39159;45.634;9.420;2022-10-17T15:42:42;50.05;;;31.48;;
53269;SDS011;39159;45.634;9.420;2022-10-17T15:45:11;51.22;;;31.60;;
53269;SDS011;39159;45.634;9.420;2022-10-17T15:47:39;46.40;;;28.63;;
53269;SDS011;39159;45.634;9.420;2022-10-17T15:50:09;46.72;;;31.17;;
53269;SDS011;39159;45.634;9.420;2022-10-17T15:52:38;40.10;;;25.05;;
53269;SDS011;39159;45.634;9.420;2022-10-17T15:55:05;52.00;;;31.17;;
53269;SDS011;39159;45.634;9.420;2022-10-17T15:57:32;44.30;;;28.38;;
53269;SDS011;39159;45.634;9.420;2022-10-17T16:00:00;46.53;;;28.60;;
53269;SDS011;39159;45.634;9.420;2022-10-17T16:02:26;53.47;;;31.13;;
53269;SDS011;39159;45.634;9.420;2022-10-17T16:04:51;42.65;;;28.55;;
53269;SDS011;39159;45.634;9.420;2022-10-17T16:07:19;43.33;;;28.13;;
53269;SDS011;39159;45.634;9.420;2022-10-17T16:09:45;37.60;;;25.10;;
53269;SDS011;39159;45.634;9.420;2022-10-17T16:12:15;39.88;;;26.90;;
53269;SDS011;39159;45.634;9.420;2022-10-17T16:14:42;35.43;;;22.97;;
53269;SDS011;39159;45.634;9.420;2022-10-17T16:17:16;36.25;;;24.70;;